Time;durP1;ratioP1;P1;durP2;ratioP2;P2;SDS_P1;SDS_P2;PMS_P1;PMS_P2;Temp;Humidity;BMP_temperature;BMP_pressure;BME280_temperature;BME280_humidity;BME280_pressure;Samples;Min_cycle;Max_cycle;Signal;HPM_P1;HPM_P2
2021/05/23 00:00:13;;;;;;;3.25;1.63;;;;;;;8.54;65.90;98881.69;5057886;28;20037;-78
2021/05/23 00:02:40;;;;;;;11.05;1.80;;;;;;;8.77;65.51;98882.28;5062896;28;20507;-79
2021/05/23 00:05:12;;;;;;;3.35;2.10;;;;;;;8.60;66.19;98874.66;5058751;28;20065;-79
2021/05/23 00:07:50;;;;;;;5.25;1.52;;;;;;;8.73;65.27;98880.56;5070030;28;20041;-79
2021/05/23 00:10:17;;;;;;;4.20;1.63;;;;;;;8.80;65.54;98881.34;5054968;28;20048;-79
2021/05/23 00:12:46;;;;;;;5.85;1.67;;;;;;;8.94;64.89;98875.09;5046354;28;20591;-78
2021/05/23 00:15:17;;;;;;;4.75;1.33;;;;;;;8.62;65.55;98874.66;5045861;28;20045;-79
2021/05/23 00:17:44;;;;;;;6.95;1.40;;;;;;;8.68;65.61;98870.22;5051712;28;20056;-79
2021/05/23 00:20:12;;;;;;;5.07;1.35;;;;;;;8.73;65.69;98876.22;5046324;28;20087;-77
2021/05/23 00:22:39;;;;;;;7.68;1.95;;;;;;;8.73;65.49;98870.16;5047263;28;20053;-77
2021/05/23 00:25:58;;;;;;;10.80;1.55;;;;;;;8.77;65.64;98871.84;5013760;28;20156;-78
2021/05/23 00:28:27;;;;;;;8.57;1.70;;;;;;;8.67;65.09;98871.13;4988915;28;20125;-79
2021/05/23 00:30:55;;;;;;;4.72;1.52;;;;;;;8.77;65.52;98873.59;4962682;28;20046;-79
2021/05/23 00:33:23;;;;;;;8.82;1.90;;;;;;;8.73;65.32;98868.41;4969637;28;20070;-79
2021/05/23 00:35:50;;;;;;;4.47;1.70;;;;;;;8.74;65.35;98866.66;4977886;28;20054;-78
2021/05/23 00:38:16;;;;;;;5.65;1.52;;;;;;;8.77;65.64;98866.66;4976251;28;20478;-79
2021/05/23 00:40:43;;;;;;;6.65;2.08;;;;;;;8.63;65.59;98860.75;4982518;28;20058;-78
2021/05/23 00:43:12;;;;;;;5.53;2.33;;;;;;;8.65;65.90;98862.44;4986691;28;20062;-78
2021/05/23 00:47:16;;;;;;;7.25;2.22;;;;;;;8.72;66.03;98864.13;5062681;27;20466;-77
2021/05/23 00:49:43;;;;;;;3.85;2.17;;;;;;;8.54;67.17;98863.47;5061907;28;20128;-77
2021/05/23 00:52:10;;;;;;;4.55;1.90;;;;;;;8.49;66.90;98865.28;5058637;28;20053;-79
2021/05/23 00:55:37;;;;;;;3.42;1.80;;;;;;;8.49;67.42;98858.31;5065020;27;20423;-79
2021/05/23 00:58:05;;;;;;;16.80;3.20;;;;;;;8.95;65.52;98868.13;5052933;28;20056;-79
2021/05/23 01:00:32;;;;;;;14.40;2.80;;;;;;;9.00;65.44;98868.94;5057356;28;20048;-79
2021/05/23 01:03:02;;;;;;;16.05;3.53;;;;;;;8.93;65.80;98865.53;5055510;28;20051;-79
2021/05/23 01:05:30;;;;;;;8.45;3.08;;;;;;;8.71;66.59;98870.19;5038991;28;21029;-79
2021/05/23 01:07:56;;;;;;;11.43;3.72;;;;;;;8.53;67.30;98862.63;5055929;28;20056;-80
2021/05/23 01:10:26;;;;;;;8.90;3.40;;;;;;;8.67;66.31;98860.72;5054857;28;20076;-80
2021/05/23 01:12:59;;;;;;;4.55;3.22;;;;;;;8.72;66.09;98864.13;5054628;28;20053;-79
2021/05/23 01:15:42;;;;;;;10.55;3.65;;;;;;;8.61;66.64;98858.16;5050649;28;20071;-80
2021/05/23 01:18:13;;;;;;;11.23;4.15;;;;;;;8.87;65.44;98864.78;5050087;28;20056;-79
2021/05/23 01:20:51;;;;;;;6.47;4.15;;;;;;;8.73;66.11;98852.78;5052687;28;20044;-79
2021/05/23 01:23:30;;;;;;;6.85;3.97;;;;;;;8.97;65.10;98845.53;5055749;28;20045;-79
2021/05/23 01:26:06;;;;;;;10.93;4.15;;;;;;;8.84;65.88;98846.56;5050061;28;20348;-79
2021/05/23 01:29:07;;;;;;;8.88;4.88;;;;;;;9.25;64.70;98844.25;5059651;28;20076;-79
2021/05/23 01:31:35;;;;;;;12.43;3.78;;;;;;;8.89;65.77;98832.59;5007128;28;20160;-79
2021/05/23 01:34:03;;;;;;;9.85;4.07;;;;;;;9.08;64.34;98834.06;5036154;28;20052;-79
2021/05/23 01:37:06;;;;;;;7.35;3.70;;;;;;;9.34;64.05;98836.25;5083467;27;20537;-78
2021/05/23 01:39:34;;;;;;;14.50;3.35;;;;;;;8.95;64.47;98835.13;5076772;28;20040;-78
2021/05/23 01:42:02;;;;;;;8.15;2.95;;;;;;;9.35;63.46;98835.34;5059135;28;20044;-78
2021/05/23 01:44:29;;;;;;;8.63;2.92;;;;;;;8.93;64.23;98833.41;5046912;28;20044;-78
2021/05/23 01:46:56;;;;;;;7.43;3.17;;;;;;;9.34;62.87;98832.78;5074143;28;20120;-79
2021/05/23 01:49:23;;;;;;;6.72;3.08;;;;;;;9.27;62.75;98833.75;5077666;28;20551;-78
2021/05/23 01:51:50;;;;;;;6.95;3.10;;;;;;;9.36;62.46;98831.00;5081149;28;20048;-78
2021/05/23 01:54:17;;;;;;;6.85;2.70;;;;;;;9.32;62.60;98835.41;5055361;28;20044;-79
2021/05/23 01:56:44;;;;;;;7.93;2.85;;;;;;;9.59;61.35;98823.69;5055648;28;20044;-79
2021/05/23 01:59:10;;;;;;;11.38;2.78;;;;;;;9.16;62.26;98818.28;5042394;28;20541;-79
2021/05/23 02:01:37;;;;;;;7.38;2.30;;;;;;;9.34;61.67;98820.63;5036937;28;20045;-78
2021/05/23 02:04:05;;;;;;;7.53;2.65;;;;;;;9.23;61.55;98822.53;5027798;28;20075;-79
2021/05/23 02:06:32;;;;;;;8.95;2.47;;;;;;;9.12;61.72;98817.50;5056616;28;20365;-78
2021/05/23 02:08:59;;;;;;;11.13;2.72;;;;;;;8.96;62.21;98818.63;5037836;28;20148;-79
2021/05/23 02:11:26;;;;;;;9.23;2.65;;;;;;;9.03;62.42;98816.78;5049297;28;20372;-78
2021/05/23 02:13:53;;;;;;;7.47;2.30;;;;;;;9.24;61.44;98819.06;5053308;28;20355;-78
2021/05/23 02:16:21;;;;;;;10.10;2.67;;;;;;;9.23;61.27;98813.84;5035551;28;20490;-78
2021/05/23 02:18:48;;;;;;;6.15;2.10;;;;;;;9.30;61.30;98824.19;5038225;28;20499;-78
2021/05/23 02:21:15;;;;;;;8.70;2.38;;;;;;;9.33;60.61;98818.03;5069681;28;20055;-78
2021/05/23 02:25:47;;;;;;;3.50;1.92;;;;;;;9.32;60.62;98822.38;5055884;27;20139;-79
2021/05/23 02:28:15;;;;;;;5.75;1.98;;;;;;;8.97;60.99;98819.50;5043851;28;20690;-78
2021/05/23 02:30:45;;;;;;;4.65;2.10;;;;;;;9.00;60.94;98815.09;5032152;28;20049;-78
2021/05/23 02:33:15;;;;;;;6.32;1.73;;;;;;;8.97;61.14;98822.94;5038647;28;20064;-78
2021/05/23 02:35:47;;;;;;;3.15;1.80;;;;;;;9.23;60.23;98822.53;5032126;28;20471;-79
2021/05/23 02:38:16;;;;;;;3.35;1.48;;;;;;;9.23;60.27;98822.53;5046848;28;20052;-78
2021/05/23 02:40:43;;;;;;;5.07;1.50;;;;;;;9.14;60.31;98820.94;5023269;28;20144;-78
2021/05/23 02:43:12;;;;;;;5.63;1.55;;;;;;;9.00;60.30;98817.69;5028119;28;20059;-77
2021/05/23 02:45:41;;;;;;;3.17;1.55;;;;;;;9.34;59.53;98823.22;5046091;28;20060;-78
2021/05/23 02:48:08;;;;;;;6.03;1.63;;;;;;;9.09;60.38;98820.16;5038818;28;20049;-78
2021/05/23 02:50:38;;;;;;;4.18;1.20;;;;;;;9.36;59.36;98821.44;5050269;28;20051;-78
2021/05/23 02:53:06;;;;;;;5.97;1.33;;;;;;;9.44;58.66;98816.13;5048385;28;20063;-78
2021/05/23 02:55:35;;;;;;;4.13;1.25;;;;;;;9.35;58.76;98821.50;5034633;28;20055;-78
2021/05/23 02:58:05;;;;;;;7.93;1.20;;;;;;;9.45;58.49;98821.28;5022921;28;20103;-78
2021/05/23 03:00:33;;;;;;;5.25;1.15;;;;;;;9.17;59.41;98815.66;5018936;28;20117;-79
2021/05/23 03:03:02;;;;;;;5.30;1.10;;;;;;;9.02;60.09;98804.63;5021412;28;20054;-78
2021/05/23 03:05:29;;;;;;;7.50;1.33;;;;;;;9.09;59.87;98812.34;5040144;28;20419;-78
2021/05/23 03:07:56;;;;;;;6.70;1.08;;;;;;;9.32;59.30;98811.97;5023871;28;20034;-78
2021/05/23 03:10:32;;;;;;;4.93;1.00;;;;;;;9.43;58.69;98812.66;5013957;28;20065;-78
2021/05/23 03:13:01;;;;;;;3.65;1.20;;;;;;;9.48;58.26;98813.44;5035505;28;20070;-78
2021/05/23 03:15:28;;;;;;;6.82;0.90;;;;;;;9.66;57.54;98808.78;5023832;28;20049;-79
2021/05/23 03:17:56;;;;;;;5.32;0.93;;;;;;;9.79;57.49;98805.03;5014392;28;20083;-78
2021/05/23 03:21:22;;;;;;;6.50;1.15;;;;;;;9.44;58.42;98801.34;5122680;27;20408;-78
2021/05/23 03:23:49;;;;;;;4.53;1.08;;;;;;;9.64;57.62;98799.22;5102124;28;20475;-78
2021/05/23 03:26:15;;;;;;;5.63;0.98;;;;;;;9.75;58.19;98808.59;5099898;28;20047;-78
2021/05/23 03:28:42;;;;;;;6.90;1.20;;;;;;;9.80;58.30;98804.16;5100074;28;20088;-78
2021/05/23 03:31:09;;;;;;;7.35;1.20;;;;;;;9.81;58.83;98811.09;5106228;27;20069;-79
2021/05/23 03:33:36;;;;;;;5.10;1.23;;;;;;;9.56;58.84;98808.94;5068062;28;20040;-78
2021/05/23 03:36:03;;;;;;;7.68;1.23;;;;;;;9.83;58.27;98806.72;5108199;27;20130;-78
2021/05/23 03:38:31;;;;;;;5.75;1.35;;;;;;;10.16;57.41;98808.72;5101969;27;20123;-79
2021/05/23 03:40:58;;;;;;;4.88;0.98;;;;;;;10.08;57.79;98808.81;5115537;27;20386;-79
2021/05/23 03:43:25;;;;;;;5.38;1.20;;;;;;;10.29;57.49;98810.19;5139546;27;20105;-78
2021/05/23 03:45:53;;;;;;;4.75;1.13;;;;;;;9.86;58.20;98793.63;5106047;27;20058;-78
2021/05/23 03:48:20;;;;;;;7.68;1.10;;;;;;;10.24;57.79;98800.72;5123442;27;20034;-78
2021/05/23 03:50:47;;;;;;;9.13;1.45;;;;;;;10.25;57.76;98807.69;5126145;27;20047;-79
2021/05/23 03:53:13;;;;;;;8.10;1.48;;;;;;;10.15;57.70;98800.88;5127588;27;20530;-78
2021/05/23 03:55:41;;;;;;;7.50;1.23;;;;;;;10.33;57.68;98808.38;5121676;27;20467;-78
2021/05/23 03:58:08;;;;;;;7.38;1.27;;;;;;;10.36;57.44;98805.72;5121459;27;20038;-78
2021/05/23 04:00:36;;;;;;;5.93;1.10;;;;;;;10.04;58.05;98799.34;5107904;27;20443;-78
2021/05/23 04:03:04;;;;;;;5.85;1.10;;;;;;;10.20;57.81;98807.78;5120358;27;20051;-79
2021/05/23 04:05:31;;;;;;;4.97;1.10;;;;;;;10.30;58.35;98798.88;5123542;27;20516;-78
2021/05/23 04:07:59;;;;;;;6.70;1.17;;;;;;;10.10;58.58;98800.13;5117934;27;20055;-78
2021/05/23 04:10:35;;;;;;;7.03;1.45;;;;;;;10.34;58.07;98804.88;5122215;27;20071;-78
2021/05/23 04:13:05;;;;;;;10.48;1.70;;;;;;;10.63;57.57;98792.06;5118720;27;20283;-78
2021/05/23 04:15:32;;;;;;;6.97;1.35;;;;;;;10.24;58.31;98798.97;5105513;27;20039;-79
2021/05/23 04:18:23;;;;;;;4.90;1.20;;;;;;;11.00;56.40;98797.31;5059191;27;20452;-79
2021/05/23 04:20:50;;;;;;;11.52;1.20;;;;;;;11.12;55.33;98799.66;5060720;28;20124;-78
2021/05/23 04:25:11;;;;;;;7.95;1.73;;;;;;;10.91;55.46;98801.00;5058628;27;20417;-78
2021/05/23 04:28:29;;;;;;;5.32;1.30;;;;;;;10.34;55.46;98810.09;5084181;27;20168;-78
2021/05/23 04:30:57;;;;;;;7.20;1.73;;;;;;;10.48;56.20;98802.84;5057336;28;20057;-77
2021/05/23 04:33:25;;;;;;;9.77;1.35;;;;;;;10.50;56.39;98807.13;5041382;28;20128;-78
2021/05/23 04:35:52;;;;;;;6.60;1.45;;;;;;;10.29;57.41;98812.81;5057487;28;20051;-78
2021/05/23 04:38:20;;;;;;;6.53;1.70;;;;;;;10.53;56.69;98800.97;5059162;28;20056;-78
2021/05/23 04:40:51;;;;;;;5.00;1.65;;;;;;;10.65;56.54;98805.06;5066254;28;20070;-78
2021/05/23 04:43:18;;;;;;;10.00;1.20;;;;;;;10.57;57.48;98801.78;5058363;28;20147;-78
2021/05/23 04:45:45;;;;;;;9.98;2.30;;;;;;;10.48;57.80;98806.31;5060149;28;20139;-78
2021/05/23 04:48:13;;;;;;;4.95;1.17;;;;;;;10.96;56.77;98803.50;5040154;28;20045;-78
2021/05/23 04:50:41;;;;;;;4.82;1.30;;;;;;;11.15;56.07;98803.94;5045231;28;20051;-78
2021/05/23 04:53:08;;;;;;;6.97;1.25;;;;;;;11.67;54.43;98804.34;5050652;28;20064;-78
2021/05/23 04:55:35;;;;;;;4.07;1.30;;;;;;;12.44;51.92;98813.59;5051117;28;20073;-78
2021/05/23 05:01:52;;;;;;;8.60;1.83;;;;;;;12.84;50.55;98802.81;5079631;27;20129;-78
2021/05/23 05:04:19;;;;;;;5.50;1.73;;;;;;;12.41;51.83;98803.22;5060547;28;20045;-77
2021/05/23 05:06:47;;;;;;;5.18;1.15;;;;;;;12.36;51.75;98800.72;5046272;28;20402;-77
2021/05/23 05:09:13;;;;;;;6.95;1.35;;;;;;;11.76;53.19;98796.28;5065427;28;20171;-77
2021/05/23 05:11:40;;;;;;;7.38;1.60;;;;;;;11.79;54.02;98808.44;5061331;28;20388;-77
2021/05/23 05:14:10;;;;;;;3.15;1.08;;;;;;;12.23;52.39;98807.19;5022914;28;20510;-78
2021/05/23 05:16:38;;;;;;;5.20;0.95;;;;;;;12.30;52.74;98808.75;5043231;28;20391;-77
2021/05/23 05:19:05;;;;;;;7.63;1.58;;;;;;;12.48;52.20;98800.38;5025957;28;20053;-78
2021/05/23 05:24:02;;;;;;;7.05;1.52;;;;;;;12.08;53.99;98795.44;5022029;28;20511;-79
2021/05/23 05:27:07;;;;;;;7.55;1.33;;;;;;;11.91;55.16;98791.53;5088248;27;20122;-77
2021/05/23 05:29:34;;;;;;;7.68;1.50;;;;;;;12.17;54.93;98791.69;5072349;28;20057;-77
2021/05/23 05:32:02;;;;;;;10.20;1.60;;;;;;;12.35;54.33;98782.44;5073785;28;20475;-78
2021/05/23 05:34:29;;;;;;;9.15;1.85;;;;;;;12.40;54.75;98778.78;5064874;28;20467;-77
2021/05/23 05:36:56;;;;;;;6.53;1.50;;;;;;;12.44;54.72;98774.31;5075861;28;20049;-78
2021/05/23 05:40:24;;;;;;;12.30;2.42;;;;;;;13.06;53.12;98785.47;5053470;27;842141;-78
2021/05/23 05:42:52;;;;;;;4.72;1.40;;;;;;;13.25;52.66;98785.78;5043148;28;20105;-78
2021/05/23 05:45:19;;;;;;;13.55;1.60;;;;;;;13.75;51.14;98786.72;5064918;28;20077;-78
2021/05/23 05:48:51;;;;;;;14.32;1.77;;;;;;;14.53;49.33;98787.41;5095204;27;20125;-77
2021/05/23 05:51:19;;;;;;;10.65;1.80;;;;;;;14.90;48.11;98786.84;5081260;28;20046;-76
2021/05/23 05:53:46;;;;;;;10.55;1.70;;;;;;;15.15;46.63;98779.69;5066171;28;20139;-76
2021/05/23 05:56:13;;;;;;;7.00;1.67;;;;;;;14.36;48.90;98770.50;5064966;28;20505;-77
2021/05/23 05:58:40;;;;;;;15.98;2.53;;;;;;;14.66;48.13;98776.38;5067945;28;20544;-77
2021/05/23 06:01:07;;;;;;;9.15;1.63;;;;;;;14.65;47.89;98769.38;5068352;28;20123;-77
2021/05/23 06:03:34;;;;;;;7.47;1.45;;;;;;;13.47;51.55;98763.19;5069934;28;20048;-77
2021/05/23 06:06:01;;;;;;;11.57;2.00;;;;;;;13.96;49.51;98770.19;5085217;28;20410;-78
2021/05/23 06:08:29;;;;;;;11.40;2.08;;;;;;;13.54;51.78;98760.28;5070343;28;20067;-78
2021/05/23 06:10:57;;;;;;;10.18;2.15;;;;;;;12.87;53.63;98758.13;5084614;28;20143;-78
2021/05/23 06:13:24;;;;;;;14.52;4.07;;;;;;;13.19;52.94;98762.41;5056294;28;20068;-78
2021/05/23 06:16:15;;;;;;;13.02;3.60;;;;;;;12.65;54.34;98750.09;5043047;27;819740;-78
2021/05/23 06:18:42;;;;;;;12.40;2.90;;;;;;;12.87;53.47;98756.38;5062155;28;20056;-79
2021/05/23 06:21:09;;;;;;;8.70;3.25;;;;;;;12.59;54.33;98759.00;5086061;28;20059;-78
2021/05/23 06:23:36;;;;;;;13.02;3.65;;;;;;;13.10;53.18;98760.88;5082879;28;20075;-79
2021/05/23 06:26:04;;;;;;;12.90;3.20;;;;;;;12.77;54.04;98769.81;5039385;28;20411;-79
2021/05/23 06:28:31;;;;;;;11.95;2.83;;;;;;;12.72;54.21;98775.19;5066105;28;20040;-79
2021/05/23 06:30:59;;;;;;;13.50;3.38;;;;;;;13.15;52.97;98763.38;5061446;28;20057;-79
2021/05/23 06:33:27;;;;;;;8.55;3.20;;;;;;;13.70;51.25;98765.00;5062665;28;20140;-79
2021/05/23 06:35:54;;;;;;;14.35;4.55;;;;;;;13.79;51.30;98765.56;5080610;28;20053;-80
2021/05/23 06:39:13;;;;;;;13.50;4.90;;;;;;;13.66;51.55;98766.03;5034860;27;20410;-79
2021/05/23 06:44:00;;;;;;;9.23;3.78;;;;;;;13.98;50.50;98774.50;5078377;27;20125;-78
2021/05/23 06:46:41;;;;;;;6.45;3.08;;;;;;;14.47;49.11;98777.13;5070743;27;20435;-79
2021/05/23 06:49:08;;;;;;;10.63;2.60;;;;;;;14.70;48.11;98777.97;5045901;28;20063;-79
2021/05/23 06:51:35;;;;;;;7.07;2.55;;;;;;;14.36;48.46;98782.78;5056683;28;20129;-79
2021/05/23 06:54:03;;;;;;;9.75;2.38;;;;;;;14.02;49.46;98774.38;5057312;28;20115;-78
2021/05/23 06:56:30;;;;;;;9.73;2.05;;;;;;;14.26;48.87;98769.09;5045577;28;20041;-79
2021/05/23 06:58:57;;;;;;;7.55;1.77;;;;;;;14.72;47.79;98767.41;5039943;28;20107;-79
2021/05/23 07:01:24;;;;;;;8.32;1.90;;;;;;;13.94;49.36;98770.25;5086886;28;20045;-79
2021/05/23 07:03:51;;;;;;;8.10;1.60;;;;;;;13.68;49.80;98769.44;5069997;28;20044;-78
2021/05/23 07:06:17;;;;;;;10.35;2.13;;;;;;;13.65;50.17;98769.56;5063095;28;20403;-79
2021/05/23 07:08:44;;;;;;;14.13;1.98;;;;;;;13.40;51.00;98778.28;5046080;28;20045;-79
2021/05/23 07:11:11;;;;;;;10.77;1.92;;;;;;;13.88;49.48;98773.09;5061991;27;20066;-78
2021/05/23 07:13:38;;;;;;;4.85;1.35;;;;;;;13.48;50.57;98767.50;5062745;28;20051;-78
2021/05/23 07:16:05;;;;;;;11.25;1.83;;;;;;;13.00;51.23;98770.78;5059765;28;20036;-78
2021/05/23 07:18:32;;;;;;;11.30;1.55;;;;;;;13.33;50.98;98781.16;5059814;28;20082;-78
2021/05/23 07:21:00;;;;;;;7.80;2.20;;;;;;;13.28;50.71;98775.19;5073102;27;20040;-79
2021/05/23 07:24:39;;;;;;;11.50;1.95;;;;;;;12.72;52.06;98777.81;5055002;27;20193;-78
2021/05/23 07:28:47;;;;;;;8.23;1.70;;;;;;;13.48;50.45;98778.00;5083071;27;20404;-78
2021/05/23 07:31:14;;;;;;;8.23;1.50;;;;;;;13.33;50.96;98771.50;5026454;28;20054;-79
2021/05/23 07:33:41;;;;;;;4.05;1.48;;;;;;;13.24;51.22;98768.31;5028948;28;20064;-79
2021/05/23 07:36:10;;;;;;;7.78;2.00;;;;;;;13.32;50.91;98769.81;5058822;28;20049;-79
2021/05/23 07:38:38;;;;;;;5.45;1.70;;;;;;;13.10;51.40;98772.22;5057564;28;20053;-79
2021/05/23 07:41:05;;;;;;;7.97;1.40;;;;;;;12.52;53.32;98780.16;5041287;28;20461;-79
2021/05/23 07:43:32;;;;;;;8.07;1.90;;;;;;;12.88;52.75;98776.44;5028906;28;20057;-80
2021/05/23 07:45:59;;;;;;;9.35;1.67;;;;;;;13.08;52.02;98768.81;5000790;28;20327;-80
2021/05/23 07:48:26;;;;;;;13.05;1.90;;;;;;;13.04;52.08;98779.44;5073513;28;20069;-79
2021/05/23 07:50:53;;;;;;;8.98;1.55;;;;;;;13.04;52.33;98771.56;5043189;28;20108;-79
2021/05/23 07:53:22;;;;;;;13.13;2.42;;;;;;;11.98;54.69;98773.03;5013919;28;20156;-79
2021/05/23 07:55:49;;;;;;;7.45;2.15;;;;;;;12.23;54.68;98768.78;5063756;28;20423;-79
2021/05/23 07:58:16;;;;;;;10.90;2.10;;;;;;;12.55;54.29;98770.47;5041559;28;20091;-78
2021/05/23 08:00:43;;;;;;;10.10;1.75;;;;;;;12.66;54.13;98771.00;5044835;28;20091;-79
2021/05/23 08:03:10;;;;;;;7.07;1.50;;;;;;;13.12;53.27;98772.22;5042922;28;20049;-79
2021/05/23 08:05:37;;;;;;;9.52;1.60;;;;;;;12.95;53.94;98770.09;5042604;28;20060;-79
2021/05/23 08:08:05;;;;;;;8.65;1.40;;;;;;;13.14;52.52;98775.63;5024078;28;20089;-79
2021/05/23 08:10:33;;;;;;;9.60;1.67;;;;;;;12.89;53.35;98772.91;5044033;28;20567;-78
2021/05/23 08:13:00;;;;;;;8.93;1.50;;;;;;;13.37;52.15;98782.75;5040051;28;20041;-78
2021/05/23 08:15:28;;;;;;;9.27;1.67;;;;;;;13.18;52.28;98781.66;5042579;28;20053;-78
2021/05/23 08:17:55;;;;;;;5.88;1.77;;;;;;;12.80;53.47;98781.06;5043043;28;20049;-78
2021/05/23 08:20:23;;;;;;;9.15;1.50;;;;;;;13.12;53.55;98777.47;5061671;28;20052;-78
2021/05/23 08:22:50;;;;;;;13.38;2.55;;;;;;;13.14;52.77;98775.63;5028488;28;20076;-77
2021/05/23 08:25:19;;;;;;;8.30;1.85;;;;;;;12.99;53.23;98790.09;5042059;28;20048;-78
2021/05/23 08:27:46;;;;;;;12.07;2.70;;;;;;;12.86;52.95;98782.63;5025457;28;20499;-76
2021/05/23 08:30:14;;;;;;;5.72;1.85;;;;;;;13.54;51.72;98783.91;5057563;28;21184;-78
2021/05/23 08:32:41;;;;;;;13.80;1.77;;;;;;;13.73;51.23;98785.91;5055839;28;20041;-77
2021/05/23 08:35:11;;;;;;;8.02;1.83;;;;;;;13.28;52.11;98785.69;5040579;28;20123;-79
2021/05/23 08:37:38;;;;;;;5.97;1.30;;;;;;;13.80;50.79;98793.53;5059516;28;20155;-79
2021/05/23 08:40:06;;;;;;;4.43;1.40;;;;;;;13.93;50.40;98784.31;5043593;28;20055;-79
2021/05/23 08:42:36;;;;;;;8.50;1.85;;;;;;;13.98;50.75;98789.38;5031505;28;20118;-78
2021/05/23 08:45:05;;;;;;;10.05;1.27;;;;;;;13.41;51.66;98781.75;5045106;28;20060;-78
2021/05/23 08:47:39;;;;;;;9.65;1.33;;;;;;;14.01;50.82;98786.63;5016774;28;20128;-79
2021/05/23 08:50:06;;;;;;;6.63;1.90;;;;;;;13.94;50.82;98787.78;5026333;28;20045;-79
2021/05/23 08:52:33;;;;;;;12.55;1.38;;;;;;;13.49;51.61;98779.72;5014370;28;20056;-79
2021/05/23 08:55:04;;;;;;;11.27;1.40;;;;;;;14.01;49.94;98784.00;5026732;28;20064;-79
2021/05/23 08:57:33;;;;;;;6.40;1.60;;;;;;;13.96;50.80;98786.81;5028543;28;20053;-78
2021/05/23 09:00:03;;;;;;;9.30;1.48;;;;;;;15.17;48.06;98786.59;5027863;28;20044;-80
2021/05/23 09:02:30;;;;;;;9.65;2.65;;;;;;;16.56;43.25;98786.72;5043807;28;20515;-79
2021/05/23 09:04:58;;;;;;;9.13;1.65;;;;;;;17.26;41.42;98776.38;5027072;28;20076;-79
2021/05/23 09:07:25;;;;;;;4.03;1.20;;;;;;;18.55;38.20;98784.72;5026462;28;20046;-79
2021/05/23 09:09:52;;;;;;;6.90;1.58;;;;;;;19.23;36.66;98785.34;5029246;28;20535;-79
2021/05/23 09:12:20;;;;;;;8.77;1.42;;;;;;;18.87;37.09;98785.59;5026503;28;20113;-78
2021/05/23 09:14:52;;;;;;;8.02;1.50;;;;;;;18.60;38.19;98775.59;5030375;28;20053;-78
2021/05/23 09:17:22;;;;;;;5.05;1.80;;;;;;;18.03;38.37;98778.66;5028095;28;20072;-77
2021/05/23 09:19:51;;;;;;;9.27;1.70;;;;;;;16.88;41.52;98766.81;5024605;28;20132;-80
2021/05/23 09:22:21;;;;;;;5.50;1.45;;;;;;;17.07;40.63;98766.78;5041861;28;20053;-78
2021/05/23 09:24:57;;;;;;;6.45;1.30;;;;;;;16.26;41.95;98753.88;5011436;28;20409;-81
2021/05/23 09:27:28;;;;;;;7.13;1.60;;;;;;;16.67;41.82;98765.19;5007707;28;20053;-82
2021/05/23 09:30:11;;;;;;;4.25;1.23;;;;;;;17.56;40.05;98770.47;5027854;28;20406;-80
2021/05/23 09:32:41;;;;;;;7.18;1.40;;;;;;;16.61;41.48;98770.72;5037873;28;20149;-80
2021/05/23 09:35:10;;;;;;;6.30;1.40;;;;;;;16.33;41.99;98758.78;5006704;28;20124;-78
2021/05/23 09:37:38;;;;;;;5.53;1.30;;;;;;;16.50;41.52;98763.28;4993065;28;20065;-79
2021/05/23 09:40:15;;;;;;;6.57;1.23;;;;;;;16.49;42.15;98758.94;5025530;28;20057;-79
2021/05/23 09:42:50;;;;;;;6.55;1.20;;;;;;;15.83;43.25;98747.00;5041852;28;20049;-80
2021/05/23 09:45:20;;;;;;;2.45;1.10;;;;;;;16.56;42.57;98755.94;5026337;28;20073;-80
2021/05/23 09:47:58;;;;;;;8.30;1.52;;;;;;;16.22;42.78;98768.09;5011139;28;20053;-79
2021/05/23 09:50:34;;;;;;;5.30;1.70;;;;;;;16.07;43.69;98764.34;5023481;28;20140;-79
2021/05/23 09:53:02;;;;;;;7.70;1.60;;;;;;;15.06;45.92;98766.91;5024769;28;20128;-79
2021/05/23 09:55:30;;;;;;;6.53;1.55;;;;;;;15.71;44.90;98772.09;5023310;28;20149;-79
2021/05/23 09:58:36;;;;;;;10.57;1.80;;;;;;;15.13;46.62;98760.47;5022984;28;20041;-79
2021/05/23 10:01:05;;;;;;;7.00;1.83;;;;;;;15.35;46.14;98769.19;5019430;28;20037;-79
2021/05/23 10:03:37;;;;;;;4.65;1.33;;;;;;;15.97;44.04;98768.34;5006939;28;20104;-80
2021/05/23 10:06:06;;;;;;;2.73;0.87;;;;;;;16.21;41.97;98761.13;5025353;28;20045;-80
2021/05/23 10:08:34;;;;;;;2.15;0.63;;;;;;;16.21;43.00;98763.78;5023734;28;20356;-80
2021/05/23 10:11:01;;;;;;;2.63;0.75;;;;;;;16.61;41.34;98757.53;5009329;28;20464;-80
2021/05/23 10:13:29;;;;;;;3.03;1.08;;;;;;;16.71;41.41;98764.09;5026963;28;20073;-80
2021/05/23 10:17:22;;;;;;;4.07;1.38;;;;;;;16.26;42.12;98762.63;5080318;27;20412;-79
2021/05/23 10:19:51;;;;;;;5.78;1.10;;;;;;;15.21;44.56;98755.75;5043899;28;20452;-79
2021/05/23 10:24:04;;;;;;;6.00;1.45;;;;;;;15.82;43.91;98756.69;5019588;27;20410;-79
2021/05/23 10:27:04;;;;;;;6.63;1.60;;;;;;;16.05;43.36;98753.91;5009933;28;20046;-79
2021/05/23 10:32:09;;;;;;;9.88;1.58;;;;;;;15.43;43.97;98743.44;5081037;27;20444;-76
2021/05/23 10:35:32;;;;;;;3.45;1.40;;;;;;;15.73;44.56;98743.91;5039853;27;20412;-79
2021/05/23 10:40:21;;;;;;;6.38;1.83;;;;;;;16.33;42.84;98736.84;5050841;28;20442;-81
2021/05/23 10:42:52;;;;;;;2.97;1.27;;;;;;;15.91;43.40;98734.38;5009419;28;20483;-81
2021/05/23 10:45:25;;;;;;;7.78;1.52;;;;;;;15.45;44.95;98728.41;5022914;28;20049;-80
2021/05/23 10:47:57;;;;;;;5.50;1.70;;;;;;;15.68;44.98;98736.22;5042226;28;20183;-80
2021/05/23 10:50:35;;;;;;;6.80;1.98;;;;;;;14.75;48.33;98739.19;5044596;28;20072;-80
2021/05/23 10:53:03;;;;;;;3.28;1.10;;;;;;;14.51;50.04;98742.78;5026201;28;20053;-80
2021/05/23 10:55:31;;;;;;;6.72;1.30;;;;;;;14.05;50.33;98743.63;5032080;28;20057;-80
2021/05/23 10:57:58;;;;;;;4.43;1.02;;;;;;;14.52;48.68;98734.00;5058643;28;20146;-79
2021/05/23 11:00:28;;;;;;;4.20;1.35;;;;;;;15.94;46.08;98734.22;5060209;28;20068;-80
2021/05/23 11:03:13;;;;;;;3.40;1.48;;;;;;;15.42;45.73;98719.78;5055295;28;20075;-80
2021/05/23 11:05:41;;;;;;;2.83;1.33;;;;;;;15.57;45.48;98720.03;5058790;28;20041;-80
2021/05/23 11:08:12;;;;;;;1.50;0.88;;;;;;;15.25;45.63;98716.09;5033986;28;20060;-78
2021/05/23 11:10:50;;;;;;;6.07;1.60;;;;;;;15.02;45.84;98707.44;5038321;28;20055;-78
2021/05/23 11:13:26;;;;;;;7.53;1.30;;;;;;;15.61;45.06;98703.19;5050796;28;20158;-80
2021/05/23 11:15:54;;;;;;;5.57;1.50;;;;;;;15.59;44.91;98691.00;5072106;28;20472;-79
2021/05/23 11:18:24;;;;;;;3.72;1.00;;;;;;;15.56;44.65;98701.66;5053765;28;20104;-79
2021/05/23 11:20:57;;;;;;;4.28;1.10;;;;;;;15.63;44.27;98696.06;5035973;28;20123;-79
2021/05/23 11:23:25;;;;;;;3.33;1.38;;;;;;;16.01;43.05;98693.53;5053294;28;20603;-79
2021/05/23 11:26:23;;;;;;;6.55;1.10;;;;;;;16.95;40.78;98689.06;5056794;28;20158;-80
2021/05/23 11:28:55;;;;;;;7.40;1.20;;;;;;;17.34;40.54;98689.72;5032657;28;20045;-80
2021/05/23 11:31:36;;;;;;;3.92;1.17;;;;;;;17.02;40.82;98686.03;4998826;28;20053;-76
2021/05/23 11:34:06;;;;;;;5.03;1.02;;;;;;;17.23;39.62;98686.75;5036802;28;20107;-80
2021/05/23 11:36:35;;;;;;;7.40;1.30;;;;;;;16.51;41.79;98670.94;5032969;28;20120;-78
2021/05/23 11:39:13;;;;;;;3.70;1.15;;;;;;;16.83;41.19;98685.25;5017940;28;20098;-79
2021/05/23 11:41:50;;;;;;;3.33;1.05;;;;;;;17.20;39.78;98678.16;5020093;28;20441;-79
2021/05/23 11:44:18;;;;;;;4.03;0.90;;;;;;;17.89;39.76;98665.72;5013850;28;20157;-79
2021/05/23 11:46:50;;;;;;;5.15;1.20;;;;;;;18.08;38.41;98669.09;4998099;28;20054;-79
2021/05/23 11:49:20;;;;;;;4.95;1.10;;;;;;;18.24;38.36;98661.19;5014440;28;20049;-80
2021/05/23 11:51:48;;;;;;;3.33;1.10;;;;;;;17.10;39.80;98663.69;5001585;28;20042;-79
2021/05/23 11:54:17;;;;;;;7.32;1.15;;;;;;;17.43;39.99;98664.63;4999301;28;20095;-79
2021/05/23 11:56:44;;;;;;;12.55;1.13;;;;;;;18.18;38.24;98650.94;4970158;28;20052;-79
2021/05/23 11:59:11;;;;;;;3.85;1.02;;;;;;;18.32;38.55;98653.69;5001001;28;20358;-79
2021/05/23 12:01:46;;;;;;;4.15;1.33;;;;;;;18.27;37.45;98648.66;5005038;28;20060;-79
2021/05/23 12:04:14;;;;;;;5.93;1.60;;;;;;;17.88;38.37;98627.06;4981509;28;20552;-78
2021/05/23 12:06:50;;;;;;;3.97;1.23;;;;;;;17.10;39.14;98632.88;5042672;28;20041;-80
2021/05/23 12:09:31;;;;;;;6.60;1.40;;;;;;;17.76;38.26;98630.34;5025494;28;20138;-80
2021/05/23 12:16:13;;;;;;;2.58;0.60;;;;;;;16.96;39.57;98636.22;5070252;28;20040;-79
2021/05/23 12:18:46;;;;;;;5.40;1.42;;;;;;;16.09;40.39;98633.41;5042212;28;20036;-79
2021/05/23 12:21:18;;;;;;;6.70;1.35;;;;;;;16.77;39.71;98622.25;5042389;28;20144;-79